Time;durP1;ratioP1;P1;durP2;ratioP2;P2;SDS_P1;SDS_P2;PMS_P1;PMS_P2;Temp;Humidity;BMP_temperature;BMP_pressure;BME280_temperature;BME280_humidity;BME280_pressure;Samples;Min_cycle;Max_cycle;Signal;HPM_P1;HPM_P2
2023/12/22 00:00:36;;;;;;;5.80;2.20;;;;;;;4.81;93.40;96359.52;103639;1254;109958;-77
2023/12/22 00:03:23;;;;;;;7.60;2.80;;;;;;;4.90;93.26;96371.83;102961;1253;138012;-78
2023/12/22 00:05:50;;;;;;;8.40;2.30;;;;;;;4.95;92.87;96373.47;103122;1260;96457;-77
2023/12/22 00:08:17;;;;;;;7.70;2.20;;;;;;;4.99;92.86;96373.36;103029;1254;107476;-78
2023/12/22 00:10:44;;;;;;;9.20;2.60;;;;;;;5.02;92.19;96367.99;102917;1254;137954;-79
2023/12/22 00:13:10;;;;;;;6.30;2.30;;;;;;;5.03;91.98;96373.95;104590;1251;109514;-77
2023/12/22 00:15:37;;;;;;;7.70;2.50;;;;;;;5.05;91.27;96369.38;103651;1251;1015139;-78
2023/12/22 00:18:05;;;;;;;9.20;2.70;;;;;;;5.05;91.17;96365.41;104608;1254;94499;-78
2023/12/22 00:20:32;;;;;;;10.00;2.60;;;;;;;5.03;90.66;96371.70;103243;1255;107694;-78
2023/12/22 00:22:58;;;;;;;9.30;2.30;;;;;;;5.01;90.47;96367.93;102872;1255;137458;-78
2023/12/22 00:25:25;;;;;;;9.00;2.10;;;;;;;4.96;89.80;96364.83;102989;1254;108989;-78
2023/12/22 00:27:52;;;;;;;10.10;2.70;;;;;;;4.91;89.69;96369.86;102926;1251;138742;-78
2023/12/22 00:30:20;;;;;;;8.20;2.40;;;;;;;4.87;89.05;96372.89;103056;1251;96936;-79
2023/12/22 00:32:47;;;;;;;8.70;2.70;;;;;;;4.83;89.21;96374.09;103063;1254;107650;-76
2023/12/22 00:35:14;;;;;;;9.20;2.50;;;;;;;4.81;88.79;96377.56;102825;1257;137802;-79
2023/12/22 00:37:41;;;;;;;11.10;2.70;;;;;;;4.79;88.83;96389.20;103050;1258;109979;-78
2023/12/22 00:40:11;;;;;;;6.10;2.20;;;;;;;4.79;88.59;96392.17;103074;1250;138990;-78
2023/12/22 00:42:38;;;;;;;8.30;2.60;;;;;;;4.77;88.37;96393.67;103138;1256;96932;-78
2023/12/22 00:45:06;;;;;;;10.70;2.80;;;;;;;4.75;88.05;96403.63;103018;1257;106794;-79
2023/12/22 00:47:34;;;;;;;10.40;3.00;;;;;;;4.71;88.06;96410.79;103027;1254;136948;-78
2023/12/22 00:50:01;;;;;;;13.40;2.80;;;;;;;4.68;87.71;96415.65;103065;1266;109578;-80
2023/12/22 00:52:28;;;;;;;10.80;2.50;;;;;;;4.64;87.65;96417.51;102964;1254;137924;-78
2023/12/22 00:54:55;;;;;;;10.90;2.60;;;;;;;4.60;87.13;96422.27;103018;1260;96544;-79
2023/12/22 00:57:22;;;;;;;9.60;2.50;;;;;;;4.54;87.01;96414.56;103264;1251;137727;-78
2023/12/22 00:59:49;;;;;;;12.40;2.80;;;;;;;4.51;86.85;96410.98;103462;1250;96450;-79
2023/12/22 01:02:16;;;;;;;12.40;2.80;;;;;;;4.42;86.82;96394.75;103401;1258;110872;-78
2023/12/22 01:04:43;;;;;;;11.40;3.00;;;;;;;4.49;86.45;96406.65;103198;1254;137812;-77
2023/12/22 01:07:11;;;;;;;10.10;2.60;;;;;;;4.48;86.10;96413.77;103247;1251;95174;-77
2023/12/22 01:09:38;;;;;;;7.90;2.40;;;;;;;4.49;86.11;96412.88;103209;1254;138576;-77
2023/12/22 01:12:06;;;;;;;10.70;2.80;;;;;;;4.49;86.13;96414.42;103309;1257;96460;-77
2023/12/22 01:14:33;;;;;;;11.30;3.20;;;;;;;4.47;86.18;96411.94;103421;1251;108887;-78
2023/12/22 01:17:00;;;;;;;7.10;2.50;;;;;;;4.46;85.63;96412.35;103206;1251;137981;-78
2023/12/22 01:19:27;;;;;;;7.20;2.50;;;;;;;4.46;85.90;96414.75;103221;1257;96434;-78
2023/12/22 01:21:54;;;;;;;9.90;3.10;;;;;;;4.45;85.54;96416.77;103344;1256;137333;-77
2023/12/22 01:24:21;;;;;;;16.70;3.50;;;;;;;4.42;85.55;96401.46;103373;1257;96459;-78
2023/12/22 01:26:47;;;;;;;12.70;3.30;;;;;;;4.41;84.81;96399.46;103354;1254;110398;-77
2023/12/22 01:29:14;;;;;;;13.00;3.30;;;;;;;4.40;84.63;96390.96;103191;1251;137277;-78
2023/12/22 01:31:41;;;;;;;11.70;2.60;;;;;;;4.36;84.31;96393.62;103457;1253;96485;-79
2023/12/22 01:34:08;;;;;;;12.80;3.00;;;;;;;4.33;84.06;96387.49;103312;1257;143005;-78
2023/12/22 01:36:36;;;;;;;11.60;3.00;;;;;;;4.31;84.51;96388.48;103327;1256;96358;-78
2023/12/22 01:39:03;;;;;;;10.90;2.60;;;;;;;4.29;83.84;96395.98;103358;1253;109943;-78
2023/12/22 01:41:34;;;;;;;9.00;2.60;;;;;;;4.28;84.21;96397.65;103207;1251;137815;-77
2023/12/22 01:44:00;;;;;;;10.90;3.00;;;;;;;4.28;84.27;96397.47;103296;1254;97651;-78
2023/12/22 01:46:28;;;;;;;10.90;2.70;;;;;;;4.31;84.09;96397.95;103240;1254;137649;-78
2023/12/22 01:48:55;;;;;;;12.60;2.90;;;;;;;4.34;84.04;96393.95;103413;1254;96439;-77
2023/12/22 01:51:22;;;;;;;13.20;3.20;;;;;;;4.35;83.48;96398.88;103246;1251;137242;-77
2023/12/22 01:53:49;;;;;;;11.00;3.60;;;;;;;4.35;83.80;96400.23;103316;1251;110225;-78
2023/12/22 01:56:16;;;;;;;11.00;2.80;;;;;;;4.33;83.47;96402.64;103358;1251;96316;-78
2023/12/22 01:58:43;;;;;;;12.60;3.40;;;;;;;4.31;83.22;96407.40;103143;1254;137086;-76
2023/12/22 02:01:16;;;;;;;11.00;2.70;;;;;;;4.27;83.12;96401.65;103304;1251;96492;-79
2023/12/22 02:03:43;;;;;;;8.40;3.10;;;;;;;4.24;83.17;96412.83;103282;1253;138113;-79
2023/12/22 02:06:11;;;;;;;11.90;3.30;;;;;;;4.24;83.33;96417.83;103305;1251;108026;-79
2023/12/22 02:08:39;;;;;;;8.50;3.10;;;;;;;4.27;83.03;96427.62;103393;1251;96965;-79
2023/12/22 02:11:06;;;;;;;11.50;2.80;;;;;;;4.32;83.11;96423.85;103034;1254;137505;-79
2023/12/22 02:13:33;;;;;;;11.60;3.10;;;;;;;4.37;82.96;96416.95;103373;1256;96428;-78
2023/12/22 02:16:05;;;;;;;11.50;3.70;;;;;;;4.43;82.97;96416.90;103245;1254;137704;-78
2023/12/22 02:18:38;;;;;;;11.80;3.00;;;;;;;4.45;82.42;96410.74;103310;1254;107064;-80
2023/12/22 02:21:05;;;;;;;16.70;3.20;;;;;;;4.46;82.23;96414.92;103392;1250;96491;-78
2023/12/22 02:23:32;;;;;;;15.00;3.40;;;;;;;4.46;82.26;96410.80;103183;1254;137692;-78
2023/12/22 02:26:08;;;;;;;13.50;3.10;;;;;;;4.46;82.07;96402.21;103336;1254;96469;-79
2023/12/22 02:28:37;;;;;;;10.10;2.70;;;;;;;4.44;81.63;96402.18;103339;1254;137240;-79
2023/12/22 02:31:10;;;;;;;10.40;3.10;;;;;;;4.43;81.44;96390.56;103351;1253;107477;-78
2023/12/22 02:33:40;;;;;;;9.40;2.90;;;;;;;4.45;81.38;96389.92;103266;1250;138287;-78
2023/12/22 02:36:10;;;;;;;9.80;3.30;;;;;;;4.49;81.43;96396.02;103895;1256;107661;-79
2023/12/22 02:38:39;;;;;;;11.10;3.20;;;;;;;4.50;81.11;96395.07;103383;1251;96689;-78
2023/12/22 02:41:07;;;;;;;11.60;3.40;;;;;;;4.50;81.14;96395.75;103286;1250;139172;-79
2023/12/22 02:43:35;;;;;;;11.10;3.20;;;;;;;4.45;80.98;96397.97;103347;1254;106039;-79
2023/12/22 02:46:02;;;;;;;15.80;3.40;;;;;;;4.44;81.36;96393.90;103301;1254;137649;-80
2023/12/22 02:48:29;;;;;;;15.60;3.60;;;;;;;4.44;81.45;96398.94;103270;1254;107019;-79
2023/12/22 02:50:56;;;;;;;12.80;3.20;;;;;;;4.38;81.19;96397.97;103304;1255;96646;-79
2023/12/22 02:53:23;;;;;;;14.10;3.00;;;;;;;4.37;81.29;96398.73;103343;1254;137962;-80
2023/12/22 02:55:50;;;;;;;8.90;2.60;;;;;;;4.36;81.31;96396.59;103235;1251;107118;-80
2023/12/22 02:58:16;;;;;;;7.90;2.40;;;;;;;4.36;81.12;96388.47;103248;1254;137905;-80
2023/12/22 03:00:43;;;;;;;10.60;2.90;;;;;;;4.38;81.20;96390.20;103294;1254;106623;-78
2023/12/22 03:03:10;;;;;;;13.20;2.50;;;;;;;4.41;80.94;96392.92;103289;1256;96572;-79
2023/12/22 03:05:37;;;;;;;10.20;2.80;;;;;;;4.44;80.46;96392.36;103148;1254;137116;-78
2023/12/22 03:08:04;;;;;;;14.40;3.70;;;;;;;4.45;80.18;96396.61;103303;1257;107268;-79
2023/12/22 03:10:32;;;;;;;15.10;3.30;;;;;;;4.46;80.24;96398.79;103276;1251;137227;-78
2023/12/22 03:12:59;;;;;;;12.50;3.10;;;;;;;4.46;80.54;96403.77;103357;1256;107827;-79
2023/12/22 03:15:26;;;;;;;8.10;3.20;;;;;;;4.39;80.86;96401.16;103321;1256;137464;-79
2023/12/22 03:17:53;;;;;;;10.10;2.80;;;;;;;4.33;81.21;96403.02;103394;1256;109288;-79
2023/12/22 03:20:20;;;;;;;10.70;2.60;;;;;;;4.26;81.33;96391.60;103380;1256;107641;-79
2023/12/22 03:22:47;;;;;;;8.60;2.60;;;;;;;4.20;81.67;96405.72;103318;1251;137936;-77
2023/12/22 03:25:14;;;;;;;7.80;2.50;;;;;;;4.16;81.85;96400.02;103363;1254;107221;-78
2023/12/22 03:27:41;;;;;;;9.50;3.00;;;;;;;4.14;82.27;96396.52;103209;1254;138495;-79
2023/12/22 03:30:10;;;;;;;9.80;3.10;;;;;;;4.13;82.55;96385.74;103367;1254;109937;-79
2023/12/22 03:32:37;;;;;;;10.10;2.80;;;;;;;4.12;82.61;96384.06;103681;1251;107710;-80
2023/12/22 03:35:04;;;;;;;16.00;3.60;;;;;;;4.10;82.46;96381.29;103229;1251;137982;-80
2023/12/22 03:37:31;;;;;;;13.20;3.50;;;;;;;4.07;82.70;96391.83;103368;1256;107007;-79
2023/12/22 03:39:58;;;;;;;12.50;3.40;;;;;;;4.04;82.61;96394.05;103244;1254;137479;-80
2023/12/22 03:42:25;;;;;;;12.20;3.20;;;;;;;4.02;82.37;96390.44;103327;1254;112083;-79
2023/12/22 03:44:52;;;;;;;11.00;2.90;;;;;;;4.00;82.42;96400.08;102503;1251;1003730;-80
2023/12/22 03:47:19;;;;;;;12.70;3.20;;;;;;;3.98;82.82;96399.30;103218;1251;138883;-80
2023/12/22 03:49:45;;;;;;;13.40;3.20;;;;;;;3.97;82.71;96402.18;103262;1251;107535;-80
2023/12/22 03:52:12;;;;;;;10.30;2.90;;;;;;;3.94;82.64;96399.73;103190;1253;138359;-79
2023/12/22 03:54:39;;;;;;;8.50;2.60;;;;;;;3.90;82.95;96395.20;103252;1253;109318;-80
2023/12/22 03:57:06;;;;;;;10.80;3.10;;;;;;;3.94;83.00;96401.98;103347;1256;109266;-79
2023/12/22 03:59:33;;;;;;;13.80;3.30;;;;;;;3.95;82.56;96396.92;103210;1253;138619;-79
2023/12/22 04:02:01;;;;;;;12.40;3.50;;;;;;;3.92;82.30;96384.27;103238;1256;108099;-78
2023/12/22 04:04:28;;;;;;;15.30;3.30;;;;;;;3.96;82.85;96397.75;103250;1256;137259;-80
2023/12/22 04:06:55;;;;;;;11.20;3.50;;;;;;;3.97;82.39;96395.32;103477;1250;110139;-79
2023/12/22 04:09:22;;;;;;;16.30;4.00;;;;;;;3.96;82.51;96400.67;103117;1257;137627;-78
2023/12/22 04:11:49;;;;;;;11.20;3.20;;;;;;;3.93;81.89;96396.17;103235;1254;96939;-80
2023/12/22 04:14:16;;;;;;;12.10;3.00;;;;;;;3.90;81.27;96370.44;103403;1251;107651;-80
2023/12/22 04:16:43;;;;;;;10.60;3.10;;;;;;;3.87;81.89;96386.11;103206;1253;138362;-80
2023/12/22 04:19:10;;;;;;;9.40;2.90;;;;;;;3.83;81.82;96383.98;103360;1254;108372;-78
2023/12/22 04:21:38;;;;;;;10.50;3.10;;;;;;;3.80;82.14;96376.44;103194;1254;138127;-79
2023/12/22 04:24:06;;;;;;;14.60;3.40;;;;;;;3.79;82.02;96394.39;103232;1254;96325;-79
2023/12/22 04:26:33;;;;;;;11.50;3.10;;;;;;;3.78;82.04;96380.07;103527;1251;107290;-79
2023/12/22 04:29:00;;;;;;;12.00;3.00;;;;;;;3.79;82.05;96388.23;101691;1254;1003415;-80
2023/12/22 04:31:27;;;;;;;13.00;3.10;;;;;;;3.78;81.74;96388.84;103273;1256;109730;-79
2023/12/22 04:33:54;;;;;;;11.20;2.60;;;;;;;3.81;81.78;96387.45;103232;1256;138321;-80
2023/12/22 04:36:21;;;;;;;10.60;3.00;;;;;;;3.80;81.78;96394.85;103399;1251;96813;-79
2023/12/22 04:38:48;;;;;;;8.60;3.10;;;;;;;3.80;80.94;96366.99;103327;1253;107190;-79
2023/12/22 04:41:14;;;;;;;11.90;3.30;;;;;;;3.77;80.47;96388.72;103256;1254;137126;-78
2023/12/22 04:43:41;;;;;;;13.70;3.30;;;;;;;3.74;80.82;96389.58;103451;1253;110002;-79
2023/12/22 04:46:08;;;;;;;13.10;3.40;;;;;;;3.71;80.98;96394.91;103257;1254;137392;-79
2023/12/22 04:48:35;;;;;;;10.70;3.30;;;;;;;3.68;81.02;96398.04;103345;1256;96971;-79
2023/12/22 04:51:02;;;;;;;10.40;2.80;;;;;;;3.65;81.29;96398.61;103358;1253;108067;-79
2023/12/22 04:53:29;;;;;;;7.70;2.80;;;;;;;3.59;81.41;96399.96;103285;1256;137997;-79
2023/12/22 04:55:56;;;;;;;11.80;3.00;;;;;;;3.55;81.60;96404.20;103369;1251;109144;-78
2023/12/22 04:58:24;;;;;;;11.90;3.10;;;;;;;3.50;81.45;96397.84;103121;1253;138175;-79
2023/12/22 05:00:50;;;;;;;12.30;3.00;;;;;;;3.45;81.63;96406.42;103306;1251;98466;-78
2023/12/22 05:03:17;;;;;;;7.30;2.50;;;;;;;3.43;81.88;96406.20;103308;1256;109860;-79
2023/12/22 05:05:44;;;;;;;11.40;3.10;;;;;;;3.40;81.87;96407.94;103271;1254;96564;-79
2023/12/22 05:08:11;;;;;;;7.90;2.40;;;;;;;3.37;82.07;96416.75;103412;1250;109445;-77
2023/12/22 05:10:38;;;;;;;10.90;2.90;;;;;;;3.36;82.07;96418.20;103169;1251;139073;-79
2023/12/22 05:13:05;;;;;;;7.40;2.60;;;;;;;3.34;82.06;96418.67;103306;1254;96477;-79
2023/12/22 05:15:32;;;;;;;9.60;2.40;;;;;;;3.33;82.32;96428.66;103069;1256;138161;-79
2023/12/22 05:17:59;;;;;;;10.50;2.60;;;;;;;3.33;82.32;96428.66;103206;1254;96466;-78
2023/12/22 05:20:26;;;;;;;8.80;3.30;;;;;;;3.31;82.28;96433.77;103312;1256;109259;-80
2023/12/22 05:22:53;;;;;;;10.50;2.90;;;;;;;3.29;82.42;96437.67;103062;1253;136698;-80
2023/12/22 05:25:20;;;;;;;11.30;2.90;;;;;;;3.31;82.65;96435.48;103313;1256;96965;-80
2023/12/22 05:27:47;;;;;;;10.90;2.80;;;;;;;3.30;82.51;96436.56;103033;1256;138123;-80
2023/12/22 05:30:16;;;;;;;13.20;2.90;;;;;;;3.34;82.87;96438.70;103414;1256;96511;-80
2023/12/22 05:32:44;;;;;;;10.20;2.40;;;;;;;3.36;82.34;96444.98;103426;1256;109458;-80
2023/12/22 05:35:11;;;;;;;10.90;3.20;;;;;;;3.37;82.62;96448.70;103030;1256;138451;-80
2023/12/22 05:37:38;;;;;;;10.50;3.30;;;;;;;3.38;82.72;96447.91;103282;1251;96540;-79
2023/12/22 05:40:07;;;;;;;11.90;3.20;;;;;;;3.38;82.56;96452.08;103223;1256;136920;-79
2023/12/22 05:42:34;;;;;;;12.40;2.90;;;;;;;3.37;82.41;96450.17;103236;1254;96738;-81
2023/12/22 05:45:01;;;;;;;11.90;2.80;;;;;;;3.38;82.60;96457.68;103389;1251;112944;-80
2023/12/22 05:47:28;;;;;;;11.80;3.20;;;;;;;3.39;82.70;96450.95;103080;1251;137991;-80
2023/12/22 05:49:55;;;;;;;12.30;2.90;;;;;;;3.38;82.69;96458.04;103297;1253;96991;-78
2023/12/22 05:52:23;;;;;;;11.70;3.00;;;;;;;3.37;82.78;96461.40;103204;1251;137984;-81
2023/12/22 05:54:49;;;;;;;12.00;3.20;;;;;;;3.36;82.97;96462.27;103224;1251;96382;-78
2023/12/22 05:57:16;;;;;;;13.30;3.20;;;;;;;3.39;82.78;96461.42;103424;1251;109837;-79
2023/12/22 05:59:44;;;;;;;18.00;4.10;;;;;;;3.39;82.59;96462.45;103395;1253;107371;-77
2023/12/22 06:02:11;;;;;;;15.10;3.80;;;;;;;3.40;82.34;96465.13;103417;1253;96736;-78
2023/12/22 06:04:37;;;;;;;21.30;4.30;;;;;;;3.40;81.76;96459.95;103374;1251;138249;-78
2023/12/22 06:07:05;;;;;;;17.70;4.10;;;;;;;3.40;81.72;96463.27;103334;1253;96447;-83
2023/12/22 06:09:32;;;;;;;14.80;3.60;;;;;;;3.38;81.58;96470.06;103255;1253;137424;-80
2023/12/22 06:12:00;;;;;;;12.70;2.90;;;;;;;3.37;81.47;96467.59;103351;1255;107540;-79
2023/12/22 06:14:27;;;;;;;9.60;4.00;;;;;;;3.39;81.06;96478.77;103340;1250;96387;-82
2023/12/22 06:16:56;;;;;;;15.30;3.50;;;;;;;3.40;80.81;96471.80;103227;1253;138372;-84
2023/12/22 06:19:24;;;;;;;11.90;3.70;;;;;;;3.44;80.31;96473.45;103173;1257;96439;-81
2023/12/22 06:21:51;;;;;;;14.60;3.70;;;;;;;3.49;79.89;96474.31;103208;1258;136309;-81
2023/12/22 06:24:18;;;;;;;16.60;3.80;;;;;;;3.53;79.41;96471.69;103361;1251;106855;-81
2023/12/22 06:26:45;;;;;;;19.40;3.80;;;;;;;3.55;78.68;96475.15;103537;1250;97018;-78
2023/12/22 06:29:12;;;;;;;15.70;4.00;;;;;;;3.53;78.07;96476.81;103120;1254;135990;-77
2023/12/22 06:31:39;;;;;;;15.50;3.50;;;;;;;3.52;77.46;96484.11;102897;1251;96569;-79
2023/12/22 06:34:06;;;;;;;18.70;4.70;;;;;;;3.53;77.30;96487.84;103089;1254;137463;-79
2023/12/22 06:36:33;;;;;;;23.60;4.30;;;;;;;3.52;77.22;96499.23;103228;1251;107841;-80
2023/12/22 06:39:00;;;;;;;18.70;3.70;;;;;;;3.52;76.34;96506.10;103316;1254;97850;-80
2023/12/22 06:41:29;;;;;;;12.70;3.10;;;;;;;3.49;76.00;96510.05;102925;1258;140580;-80
2023/12/22 06:43:56;;;;;;;15.40;3.20;;;;;;;3.46;74.14;96491.02;103190;1256;96531;-84
2023/12/22 06:46:25;;;;;;;11.80;2.90;;;;;;;3.50;74.18;96502.80;103041;1254;138093;-82
2023/12/22 06:48:53;;;;;;;7.90;3.00;;;;;;;3.53;73.62;96499.81;103143;1254;106852;-82
2023/12/22 06:51:21;;;;;;;13.40;3.10;;;;;;;3.57;71.95;96502.67;103200;1254;96523;-80
2023/12/22 06:53:48;;;;;;;12.20;2.90;;;;;;;3.60;70.68;96499.73;103147;1253;108603;-81
2023/12/22 06:56:20;;;;;;;15.20;3.00;;;;;;;3.62;70.22;96497.23;102572;1251;1003007;-79
2023/12/22 06:58:48;;;;;;;19.00;3.40;;;;;;;3.62;70.01;96503.35;103044;1253;137654;-85
2023/12/22 07:01:21;;;;;;;12.30;3.30;;;;;;;3.62;69.15;96503.41;103154;1251;107710;-86
2023/12/22 07:03:49;;;;;;;14.30;3.30;;;;;;;3.62;67.19;96500.48;103002;1255;137998;-86
2023/12/22 07:06:16;;;;;;;14.50;3.20;;;;;;;3.61;68.25;96511.38;103176;1253;108692;-85
2023/12/22 07:08:43;;;;;;;13.40;3.40;;;;;;;3.60;68.14;96518.12;103247;1257;98131;-78
2023/12/22 07:11:22;;;;;;;17.10;3.30;;;;;;;3.57;68.53;96535.44;103107;1256;138981;-85
2023/12/22 07:14:00;;;;;;;12.80;3.90;;;;;;;3.58;68.23;96536.59;103239;1256;108547;-84
2023/12/22 07:16:27;;;;;;;16.20;3.90;;;;;;;3.58;68.89;96546.91;103167;1251;137692;-83
2023/12/22 07:18:54;;;;;;;19.00;4.00;;;;;;;3.57;68.78;96541.83;103216;1256;107825;-84
2023/12/22 07:21:22;;;;;;;13.40;4.00;;;;;;;3.55;68.76;96541.80;103189;1254;96405;-84
2023/12/22 07:23:49;;;;;;;19.70;4.10;;;;;;;3.53;69.11;96535.92;103231;1254;109880;-83
2023/12/22 07:26:15;;;;;;;15.70;3.50;;;;;;;3.52;69.04;96544.25;103206;1257;107705;-82
2023/12/22 07:28:46;;;;;;;16.90;3.50;;;;;;;3.49;69.13;96547.02;103091;1253;137293;-78
2023/12/22 07:31:15;;;;;;;16.70;3.50;;;;;;;3.44;69.00;96545.42;103252;1255;107119;-78
2023/12/22 07:33:42;;;;;;;18.30;3.90;;;;;;;3.43;68.60;96552.02;102349;1253;1003422;-85
2023/12/22 07:36:09;;;;;;;17.90;3.50;;;;;;;3.45;69.39;96561.31;103265;1256;109080;-83
2023/12/22 07:38:36;;;;;;;16.10;3.70;;;;;;;3.50;68.92;96556.36;103200;1256;107256;-82
2023/12/22 07:41:05;;;;;;;18.90;3.60;;;;;;;3.51;68.82;96560.73;103196;1253;137587;-79
2023/12/22 07:43:32;;;;;;;16.50;3.60;;;;;;;3.55;68.78;96566.53;103265;1256;105979;-78
2023/12/22 07:46:00;;;;;;;13.90;3.50;;;;;;;3.54;68.02;96571.56;102947;1256;137554;-79
2023/12/22 07:48:27;;;;;;;15.50;3.50;;;;;;;3.54;67.46;96577.75;103400;1251;111197;-79
2023/12/22 07:50:54;;;;;;;16.20;3.50;;;;;;;3.54;67.51;96583.94;103399;1253;106496;-77
2023/12/22 07:53:22;;;;;;;12.30;3.90;;;;;;;3.58;68.34;96586.97;103273;1251;137466;-79
2023/12/22 07:55:49;;;;;;;18.70;4.00;;;;;;;3.71;68.46;96590.11;103289;1253;108626;-83
2023/12/22 07:58:17;;;;;;;14.70;3.80;;;;;;;3.91;68.10;96590.00;103078;1253;137349;-82
2023/12/22 08:00:46;;;;;;;16.60;3.70;;;;;;;4.16;67.52;96589.60;103295;1253;109975;-81
2023/12/22 08:03:13;;;;;;;15.40;3.60;;;;;;;4.36;66.88;96591.77;103240;1251;107165;-84
2023/12/22 08:05:40;;;;;;;16.20;2.90;;;;;;;4.55;66.18;96577.27;103085;1253;138040;-83
2023/12/22 08:08:09;;;;;;;14.30;3.50;;;;;;;4.73;65.35;96562.45;103447;1253;105815;-83
2023/12/22 08:10:35;;;;;;;13.70;3.00;;;;;;;4.92;64.64;96575.98;103269;1256;137680;-83
2023/12/22 08:13:02;;;;;;;13.60;3.30;;;;;;;5.08;64.34;96579.64;103410;1256;109616;-84
2023/12/22 08:15:30;;;;;;;12.70;3.20;;;;;;;5.25;63.74;96573.36;103247;1256;138093;-84
2023/12/22 08:18:03;;;;;;;13.80;3.30;;;;;;;5.38;63.62;96581.22;103308;1253;96483;-84
2023/12/22 08:20:30;;;;;;;14.40;3.50;;;;;;;5.48;63.14;96587.74;103201;1253;108600;-84
2023/12/22 08:23:03;;;;;;;16.60;3.90;;;;;;;5.58;62.93;96597.25;103079;1253;138353;-84
2023/12/22 08:25:36;;;;;;;19.00;3.30;;;;;;;5.65;63.55;96590.04;103206;1255;109058;-82
2023/12/22 08:28:04;;;;;;;14.60;3.70;;;;;;;5.85;62.59;96608.73;102983;1256;138502;-82
2023/12/22 08:30:31;;;;;;;13.50;3.10;;;;;;;5.92;62.72;96614.63;103249;1256;96549;-87
2023/12/22 08:32:57;;;;;;;13.20;3.30;;;;;;;6.04;62.93;96617.78;103282;1256;107893;-82
2023/12/22 08:35:25;;;;;;;10.20;3.50;;;;;;;6.12;63.13;96628.06;103170;1251;137384;-81
2023/12/22 08:37:51;;;;;;;17.90;3.70;;;;;;;6.20;63.46;96626.79;103261;1254;109763;-79
2023/12/22 08:40:25;;;;;;;12.50;3.50;;;;;;;6.32;63.11;96619.68;103198;1256;137607;-85
2023/12/22 08:42:54;;;;;;;12.30;3.50;;;;;;;6.39;62.71;96624.06;103250;1252;96375;-84
2023/12/22 08:45:21;;;;;;;11.60;3.20;;;;;;;6.42;62.39;96627.89;103386;1254;109159;-84
2023/12/22 08:47:48;;;;;;;12.40;3.50;;;;;;;6.49;62.23;96626.95;103344;1256;96452;-82
2023/12/22 08:50:16;;;;;;;11.70;3.90;;;;;;;6.59;62.38;96627.05;103523;1256;109203;-84
2023/12/22 08:52:43;;;;;;;11.00;3.40;;;;;;;6.63;61.59;96629.13;103205;1254;137435;-82
2023/12/22 08:55:10;;;;;;;14.10;3.50;;;;;;;6.65;62.08;96630.38;103444;1255;96576;-83
2023/12/22 08:57:37;;;;;;;11.80;3.50;;;;;;;6.66;62.05;96618.40;103177;1254;137667;-87
2023/12/22 09:00:15;;;;;;;13.40;3.60;;;;;;;6.76;61.40;96623.56;103773;1253;96408;-79
2023/12/22 09:02:42;;;;;;;16.00;3.50;;;;;;;6.80;61.50;96627.22;103399;1253;109887;-79
2023/12/22 09:05:10;;;;;;;16.00;3.80;;;;;;;6.83;61.48;96618.02;103240;1254;137351;-80
2023/12/22 09:07:37;;;;;;;11.00;2.80;;;;;;;6.94;61.19;96619.20;104366;1254;94602;-84
2023/12/22 09:10:05;;;;;;;14.20;3.70;;;;;;;6.99;61.55;96620.73;103174;1253;137830;-82
2023/12/22 09:12:34;;;;;;;10.30;2.90;;;;;;;6.98;61.22;96614.44;103389;1251;96556;-83
2023/12/22 09:15:01;;;;;;;12.00;3.00;;;;;;;6.77;59.97;96604.98;103467;1255;109719;-81
2023/12/22 09:17:29;;;;;;;12.20;3.10;;;;;;;6.58;61.08;96611.06;103455;1253;137271;-81
2023/12/22 09:19:56;;;;;;;11.10;3.20;;;;;;;6.57;61.46;96599.23;104064;1251;96556;-76
2023/12/22 09:22:23;;;;;;;10.40;3.20;;;;;;;6.64;60.80;96595.55;103556;1253;137206;-77
2023/12/22 09:24:50;;;;;;;13.00;3.70;;;;;;;6.73;60.70;96594.56;103076;1253;96436;-74
2023/12/22 09:27:17;;;;;;;13.00;3.40;;;;;;;6.84;60.37;96590.52;103327;1256;110307;-74
2023/12/22 09:29:44;;;;;;;12.40;3.30;;;;;;;6.97;60.99;96586.33;103249;1255;137222;-74
2023/12/22 09:32:11;;;;;;;12.30;3.70;;;;;;;7.13;60.37;96588.44;103163;1256;96420;-67
2023/12/22 09:34:39;;;;;;;8.90;3.40;;;;;;;7.25;60.78;96576.44;102970;1252;138577;-75
2023/12/22 09:37:06;;;;;;;16.40;3.70;;;;;;;7.43;60.23;96574.67;103788;1253;96614;-74
2023/12/22 09:39:33;;;;;;;13.50;3.40;;;;;;;7.65;58.15;96562.92;103145;1256;138289;-69
2023/12/22 09:42:00;;;;;;;14.40;3.80;;;;;;;7.69;57.85;96557.77;103643;1252;109328;-72
2023/12/22 09:44:30;;;;;;;10.00;2.90;;;;;;;7.73;58.18;96554.38;104002;1252;97365;-71
2023/12/22 09:46:59;;;;;;;13.80;3.40;;;;;;;7.72;57.84;96558.26;102355;1253;1003605;-75
2023/12/22 09:49:26;;;;;;;8.80;2.90;;;;;;;7.52;57.26;96551.19;103332;1255;94926;-75
2023/12/22 09:51:54;;;;;;;12.60;3.60;;;;;;;7.25;57.15;96552.39;103383;1253;137145;-73
2023/12/22 09:54:25;;;;;;;11.00;3.20;;;;;;;6.91;56.89;96540.56;103319;1255;107176;-73
2023/12/22 09:56:56;;;;;;;12.90;3.40;;;;;;;6.50;56.79;96540.35;103322;1256;96771;-74
2023/12/22 09:59:24;;;;;;;9.20;3.20;;;;;;;6.11;57.21;96546.73;103200;1254;137143;-74
2023/12/22 10:01:54;;;;;;;11.70;3.00;;;;;;;5.75;58.62;96535.83;103318;1256;95126;-74
2023/12/22 10:04:21;;;;;;;12.90;3.20;;;;;;;5.49;58.80;96519.95;103120;1251;137800;-74
2023/12/22 10:06:51;;;;;;;15.90;3.10;;;;;;;5.26;59.43;96514.73;103118;1255;109801;-73
2023/12/22 10:09:19;;;;;;;6.40;1.90;;;;;;;5.02;60.67;96544.13;103247;1255;96377;-71
2023/12/22 10:11:50;;;;;;;3.00;1.00;;;;;;;4.57;64.55;96556.65;103246;1256;136752;-78
2023/12/22 10:14:21;;;;;;;4.20;1.20;;;;;;;3.86;67.35;96577.96;103362;1256;96438;-80
2023/12/22 10:16:48;;;;;;;3.90;1.30;;;;;;;3.29;68.51;96595.95;103197;1253;137768;-82
2023/12/22 10:19:16;;;;;;;5.00;2.10;;;;;;;2.91;69.34;96604.23;103211;1257;107793;-80
2023/12/22 10:21:43;;;;;;;2.50;1.20;;;;;;;2.65;70.35;96608.06;103146;1257;137963;-83
2023/12/22 10:24:30;;;;;;;2.30;0.90;;;;;;;2.39;71.69;96607.86;103263;1256;108534;-81
2023/12/22 10:26:57;;;;;;;1.90;1.20;;;;;;;2.00;73.62;96614.70;103193;1256;96502;-82
2023/12/22 10:29:24;;;;;;;4.00;1.10;;;;;;;1.76;74.76;96633.67;103133;1253;136965;-77
2023/12/22 10:31:52;;;;;;;5.50;1.90;;;;;;;1.48;75.73;96632.79;103200;1255;107028;-86
2023/12/22 10:34:19;;;;;;;4.30;1.90;;;;;;;1.23;76.79;96633.41;102991;1253;137762;-83
2023/12/22 10:36:46;;;;;;;3.10;1.30;;;;;;;1.08;77.28;96632.02;103324;1256;108981;-85
2023/12/22 10:39:14;;;;;;;5.60;1.70;;;;;;;0.94;78.55;96625.17;103295;1258;96636;-86
2023/12/22 10:41:42;;;;;;;2.50;0.80;;;;;;;0.81;79.73;96635.24;102982;1256;137629;-85
2023/12/22 10:44:09;;;;;;;1.30;0.80;;;;;;;0.70;80.49;96637.52;103382;1252;106200;-78
2023/12/22 10:46:37;;;;;;;1.60;0.90;;;;;;;0.61;81.11;96632.67;103154;1256;138209;-78
2023/12/22 10:49:04;;;;;;;2.00;0.90;;;;;;;0.53;82.02;96633.77;103290;1255;107571;-77
2023/12/22 10:51:32;;;;;;;2.70;0.90;;;;;;;0.50;82.55;96620.06;103257;1253;138917;-76
2023/12/22 10:54:00;;;;;;;1.30;1.00;;;;;;;0.50;82.89;96612.36;103411;1256;110142;-76
2023/12/22 10:56:28;;;;;;;3.40;1.10;;;;;;;0.49;83.09;96601.80;103350;1254;106667;-78
2023/12/22 10:58:55;;;;;;;3.90;1.20;;;;;;;0.52;83.21;96594.14;103234;1253;138441;-79
2023/12/22 11:01:25;;;;;;;3.70;1.30;;;;;;;0.59;83.38;96581.85;103095;1256;107734;-78
2023/12/22 11:03:54;;;;;;;4.00;1.40;;;;;;;0.66;83.06;96577.89;103258;1253;138127;-77
2023/12/22 11:06:22;;;;;;;4.20;1.40;;;;;;;0.77;83.05;96572.54;103222;1251;109723;-77
2023/12/22 11:08:53;;;;;;;5.10;1.40;;;;;;;0.88;83.03;96572.45;103070;1256;107741;-76
2023/12/22 11:11:29;;;;;;;5.40;1.70;;;;;;;1.03;82.96;96563.13;103277;1256;138460;-81
2023/12/22 11:13:58;;;;;;;3.10;1.40;;;;;;;1.24;82.75;96560.11;104437;1254;107690;-78
2023/12/22 11:16:36;;;;;;;6.40;1.80;;;;;;;1.57;82.40;96556.11;103120;1256;137847;-78
2023/12/22 11:19:13;;;;;;;5.50;1.80;;;;;;;2.00;81.99;96546.87;103232;1256;110419;-70
2023/12/22 11:21:41;;;;;;;8.90;1.90;;;;;;;2.35;81.60;96531.94;103205;1253;137966;-67
2023/12/22 11:24:09;;;;;;;8.20;2.10;;;;;;;2.71;82.96;96538.56;103302;1252;96974;-67